Time;durP1;ratioP1;P1;durP2;ratioP2;P2;SDS_P1;SDS_P2;PMS_P1;PMS_P2;Temp;Humidity;BMP_temperature;BMP_pressure;BME280_temperature;BME280_humidity;BME280_pressure;Samples;Min_cycle;Max_cycle;Signal;HPM_P1;HPM_P2
2022/09/05 00:00:08;;;;;;;3.80;2.87;;;;;;;;;;5045381;28;20198;-65
2022/09/05 00:03:05;;;;;;;4.73;2.60;;;;;;;;;;5029320;28;20272;-65
2022/09/05 00:06:05;;;;;;;4.30;2.50;;;;;;;;;;5027825;28;20222;-65
2022/09/05 00:08:51;;;;;;;6.03;2.43;;;;;;;;;;5044750;28;20201;-65
2022/09/05 00:11:34;;;;;;;3.37;2.37;;;;;;;;;;5036851;28;20260;-65
2022/09/05 00:14:33;;;;;;;3.07;2.77;;;;;;;;;;5041707;28;20222;-65
2022/09/05 00:17:58;;;;;;;4.47;2.53;;;;;;;;;;5043337;28;20199;-65
2022/09/05 00:21:07;;;;;;;2.60;2.40;;;;;;;;;;5015006;28;20592;-65
2022/09/05 00:24:08;;;;;;;4.00;2.60;;;;;;;;;;5029572;28;20206;-65
2022/09/05 00:27:21;;;;;;;3.60;2.30;;;;;;;;;;5028964;28;20225;-65
2022/09/05 00:30:09;;;;;;;3.63;2.53;;;;;;;;;;5044182;28;20233;-65
2022/09/05 00:33:21;;;;;;;4.30;2.70;;;;;;;;;;5043283;28;20183;-65
2022/09/05 00:36:22;;;;;;;2.90;2.57;;;;;;;;;;5044304;28;20260;-65
2022/09/05 00:39:12;;;;;;;4.20;2.97;;;;;;;;;;5034635;28;20222;-65
2022/09/05 00:41:52;;;;;;;4.10;2.90;;;;;;;;;;5035943;28;20205;-65
2022/09/05 00:44:24;;;;;;;4.07;2.60;;;;;;;;;;5025748;28;20201;-65
2022/09/05 00:47:03;;;;;;;2.67;2.47;;;;;;;;;;5053425;28;20263;-65
2022/09/05 00:49:42;;;;;;;4.77;2.60;;;;;;;;;;5046372;28;20275;-64
2022/09/05 00:52:17;;;;;;;3.30;2.80;;;;;;;;;;5048743;28;20618;-65
2022/09/05 00:55:02;;;;;;;4.00;2.40;;;;;;;;;;5050949;28;20225;-65
2022/09/05 00:58:01;;;;;;;3.40;2.70;;;;;;;;;;5050619;28;20186;-65
2022/09/05 01:00:57;;;;;;;4.13;2.67;;;;;;;;;;5029810;28;20223;-65
2022/09/05 01:04:10;;;;;;;3.53;2.77;;;;;;;;;;5061855;28;20205;-65
2022/09/05 01:06:42;;;;;;;4.23;2.97;;;;;;;;;;5051608;28;20198;-65
2022/09/05 01:09:28;;;;;;;5.93;3.07;;;;;;;;;;5059104;28;20295;-64
2022/09/05 01:12:01;;;;;;;4.23;3.00;;;;;;;;;;5052450;28;20682;-65
2022/09/05 01:14:45;;;;;;;3.50;3.20;;;;;;;;;;5049060;28;20210;-65
2022/09/05 01:17:35;;;;;;;4.17;3.20;;;;;;;;;;5051447;28;20194;-65
2022/09/05 01:20:38;;;;;;;4.13;3.33;;;;;;;;;;5049231;28;20202;-65
2022/09/05 01:23:45;;;;;;;9.83;4.03;;;;;;;;;;5018896;28;20215;-65
2022/09/05 01:26:14;;;;;;;6.80;3.93;;;;;;;;;;5016756;28;20206;-65
2022/09/05 01:29:08;;;;;;;7.13;4.40;;;;;;;;;;5032110;28;20237;-65
2022/09/05 01:31:55;;;;;;;6.07;4.23;;;;;;;;;;4995513;28;20740;-65
2022/09/05 01:34:43;;;;;;;7.27;4.43;;;;;;;;;;5030431;28;20207;-65
2022/09/05 01:37:31;;;;;;;8.50;4.83;;;;;;;;;;5038416;28;20203;-66
2022/09/05 01:40:23;;;;;;;8.50;5.13;;;;;;;;;;5037129;28;20195;-65
2022/09/05 01:42:55;;;;;;;7.97;5.00;;;;;;;;;;5033595;28;20205;-65
2022/09/05 01:45:44;;;;;;;8.47;5.57;;;;;;;;;;5039923;28;20233;-65
2022/09/05 01:48:25;;;;;;;7.70;6.27;;;;;;;;;;5053989;28;20291;-65
2022/09/05 01:51:14;;;;;;;9.63;6.73;;;;;;;;;;5050270;28;20213;-65
2022/09/05 01:54:12;;;;;;;11.27;6.63;;;;;;;;;;5057642;28;20218;-65
2022/09/05 01:57:15;;;;;;;9.30;5.93;;;;;;;;;;5065800;28;20267;-65
2022/09/05 01:59:46;;;;;;;10.03;6.87;;;;;;;;;;5066566;28;20197;-65
2022/09/05 02:02:36;;;;;;;11.17;6.33;;;;;;;;;;5077608;28;20198;-65
2022/09/05 02:05:21;;;;;;;9.90;7.20;;;;;;;;;;5069357;28;20190;-65
2022/09/05 02:08:31;;;;;;;9.17;6.73;;;;;;;;;;5063423;28;20206;-65
2022/09/05 02:11:12;;;;;;;12.73;6.50;;;;;;;;;;5061059;28;20198;-65
2022/09/05 02:13:59;;;;;;;10.33;6.47;;;;;;;;;;5063446;28;20275;-65
2022/09/05 02:16:49;;;;;;;8.23;5.83;;;;;;;;;;5051110;28;20232;-65
2022/09/05 02:19:24;;;;;;;6.93;5.70;;;;;;;;;;5076332;28;20189;-65
2022/09/05 02:22:12;;;;;;;8.27;6.07;;;;;;;;;;5066110;28;20194;-65
2022/09/05 02:24:45;;;;;;;9.63;6.50;;;;;;;;;;5065847;28;20198;-65
2022/09/05 02:27:29;;;;;;;8.40;6.23;;;;;;;;;;5044518;28;20197;-65
2022/09/05 02:30:24;;;;;;;9.37;6.33;;;;;;;;;;5056336;28;20181;-65
2022/09/05 02:33:05;;;;;;;10.10;6.80;;;;;;;;;;5052148;28;20197;-65
2022/09/05 02:35:36;;;;;;;11.77;7.00;;;;;;;;;;5067179;28;20302;-65
2022/09/05 02:38:15;;;;;;;9.53;7.10;;;;;;;;;;5067588;28;20204;-65
2022/09/05 02:41:25;;;;;;;11.53;7.60;;;;;;;;;;5073054;28;20220;-65
2022/09/05 02:44:20;;;;;;;12.97;8.67;;;;;;;;;;5053006;28;20221;-65
2022/09/05 02:47:25;;;;;;;11.17;8.50;;;;;;;;;;5042140;28;20230;-65
2022/09/05 02:50:15;;;;;;;16.93;9.40;;;;;;;;;;5043844;28;20228;-65
2022/09/05 02:53:14;;;;;;;14.07;9.57;;;;;;;;;;5039083;28;20706;-65
2022/09/05 02:56:31;;;;;;;14.10;9.13;;;;;;;;;;5018126;28;20610;-65
2022/09/05 02:59:41;;;;;;;14.73;10.00;;;;;;;;;;5036639;28;20267;-65
2022/09/05 03:02:29;;;;;;;16.93;10.00;;;;;;;;;;5031033;28;20221;-65
2022/09/05 03:04:58;;;;;;;18.87;11.83;;;;;;;;;;5038500;28;20205;-65
2022/09/05 03:07:54;;;;;;;16.57;10.90;;;;;;;;;;5042291;28;20225;-65
2022/09/05 03:10:39;;;;;;;18.40;11.60;;;;;;;;;;5045610;28;20197;-65
2022/09/05 03:13:40;;;;;;;19.37;13.00;;;;;;;;;;5034848;28;20320;-65
2022/09/05 03:16:41;;;;;;;19.90;13.50;;;;;;;;;;5044072;28;20209;-65
2022/09/05 03:19:33;;;;;;;21.70;14.40;;;;;;;;;;5047258;28;20198;-65
2022/09/05 03:22:34;;;;;;;24.03;15.77;;;;;;;;;;5016478;28;20193;-66
2022/09/05 03:25:25;;;;;;;26.47;16.77;;;;;;;;;;5036886;28;20199;-65
2022/09/05 03:28:11;;;;;;;28.50;18.47;;;;;;;;;;5041718;28;20286;-64
2022/09/05 03:31:04;;;;;;;28.40;16.83;;;;;;;;;;5029529;28;20217;-64
2022/09/05 03:33:50;;;;;;;26.70;17.03;;;;;;;;;;5021115;28;20198;-64
2022/09/05 03:36:34;;;;;;;27.17;18.77;;;;;;;;;;5029108;28;20215;-64
2022/09/05 03:39:22;;;;;;;25.47;16.90;;;;;;;;;;5058948;28;20218;-64
2022/09/05 03:42:11;;;;;;;26.80;17.07;;;;;;;;;;5029489;28;20210;-64
2022/09/05 03:45:00;;;;;;;26.93;17.17;;;;;;;;;;5047440;28;20624;-64
2022/09/05 03:47:47;;;;;;;26.30;17.67;;;;;;;;;;5065326;28;20275;-64
2022/09/05 03:51:00;;;;;;;26.50;18.47;;;;;;;;;;5063456;28;20205;-63
2022/09/05 03:54:04;;;;;;;29.03;18.20;;;;;;;;;;5067648;28;20201;-64
2022/09/05 03:57:00;;;;;;;29.87;18.43;;;;;;;;;;5065027;28;20288;-64
2022/09/05 04:00:07;;;;;;;27.27;18.17;;;;;;;;;;5063758;28;20197;-64
2022/09/05 04:03:00;;;;;;;27.47;17.60;;;;;;;;;;5062297;28;20214;-64
2022/09/05 04:06:08;;;;;;;27.47;18.20;;;;;;;;;;5054041;28;20190;-65
2022/09/05 04:09:11;;;;;;;25.53;17.20;;;;;;;;;;5059622;28;20267;-64
2022/09/05 04:12:19;;;;;;;30.27;18.57;;;;;;;;;;5071095;28;20466;-64
2022/09/05 04:14:50;;;;;;;27.23;17.97;;;;;;;;;;5060390;28;20214;-65
2022/09/05 04:17:43;;;;;;;24.23;16.20;;;;;;;;;;5066627;28;20213;-65
2022/09/05 04:20:38;;;;;;;24.93;17.37;;;;;;;;;;5057611;28;20199;-65
2022/09/05 04:23:14;;;;;;;24.40;16.20;;;;;;;;;;5045060;28;20213;-66
2022/09/05 04:26:01;;;;;;;25.60;16.93;;;;;;;;;;5051972;28;22127;-65
2022/09/05 04:29:02;;;;;;;28.53;17.00;;;;;;;;;;5058214;28;20627;-65
2022/09/05 04:31:50;;;;;;;23.97;16.97;;;;;;;;;;5059613;28;20198;-66
2022/09/05 04:35:01;;;;;;;24.13;16.97;;;;;;;;;;5054404;28;20190;-65
2022/09/05 04:37:59;;;;;;;22.63;15.43;;;;;;;;;;5056219;28;20290;-65
2022/09/05 04:40:41;;;;;;;23.50;16.37;;;;;;;;;;5046267;28;20205;-65
2022/09/05 04:43:20;;;;;;;25.17;16.30;;;;;;;;;;5059047;28;20194;-65
2022/09/05 04:45:59;;;;;;;25.47;16.37;;;;;;;;;;5047711;28;20322;-65
2022/09/05 04:48:34;;;;;;;25.23;15.70;;;;;;;;;;5038350;28;20198;-64
2022/09/05 04:51:08;;;;;;;24.60;16.37;;;;;;;;;;5025194;28;20255;-64
2022/09/05 04:53:43;;;;;;;27.57;17.67;;;;;;;;;;5027108;28;20542;-65
2022/09/05 04:56:18;;;;;;;26.33;17.20;;;;;;;;;;5038582;28;20222;-67
2022/09/05 04:58:52;;;;;;;26.73;16.93;;;;;;;;;;5066120;28;20204;-65
2022/09/05 05:01:47;;;;;;;28.20;18.70;;;;;;;;;;5020439;28;20186;-65
2022/09/05 05:04:42;;;;;;;31.30;19.73;;;;;;;;;;5017932;28;20195;-65
2022/09/05 05:07:39;;;;;;;31.87;20.40;;;;;;;;;;5035310;28;20201;-68
2022/09/05 05:10:26;;;;;;;39.80;22.03;;;;;;;;;;5032374;28;20202;-67
2022/09/05 05:13:29;;;;;;;78.50;32.40;;;;;;;;;;5039630;28;20301;-66
2022/09/05 05:16:41;;;;;;;98.07;37.87;;;;;;;;;;5035621;28;20223;-66
2022/09/05 05:19:48;;;;;;;78.17;33.90;;;;;;;;;;5040950;28;20721;-66
2022/09/05 05:22:46;;;;;;;59.23;28.60;;;;;;;;;;5051573;28;20695;-68
2022/09/05 05:25:18;;;;;;;49.57;25.00;;;;;;;;;;5028994;28;20610;-66
2022/09/05 05:27:57;;;;;;;43.73;23.00;;;;;;;;;;5032376;28;20226;-66
2022/09/05 05:30:43;;;;;;;37.60;20.83;;;;;;;;;;5059341;28;20210;-67
2022/09/05 05:33:29;;;;;;;30.17;17.97;;;;;;;;;;5046856;28;20205;-66
2022/09/05 05:36:21;;;;;;;29.33;18.50;;;;;;;;;;5061516;28;20242;-65
2022/09/05 05:39:02;;;;;;;25.63;16.53;;;;;;;;;;5047542;28;20232;-66
2022/09/05 05:41:48;;;;;;;26.60;15.80;;;;;;;;;;5034224;28;20194;-67
2022/09/05 05:44:18;;;;;;;22.10;14.47;;;;;;;;;;5049102;28;20190;-67
2022/09/05 05:47:01;;;;;;;25.83;14.17;;;;;;;;;;5061287;28;20319;-66
2022/09/05 05:49:47;;;;;;;18.50;13.10;;;;;;;;;;5043288;28;20636;-66
2022/09/05 05:52:33;;;;;;;17.30;11.53;;;;;;;;;;5045686;28;20202;-65
2022/09/05 05:55:24;;;;;;;18.67;11.67;;;;;;;;;;5038017;28;20197;-65
2022/09/05 05:58:24;;;;;;;15.97;10.60;;;;;;;;;;5036343;28;20222;-65
2022/09/05 06:01:17;;;;;;;22.80;10.60;;;;;;;;;;5031873;28;20225;-66
2022/09/05 06:04:23;;;;;;;20.77;9.90;;;;;;;;;;5033079;28;20207;-66
2022/09/05 06:06:57;;;;;;;17.33;10.30;;;;;;;;;;5037210;28;20198;-66
2022/09/05 06:09:58;;;;;;;18.60;8.50;;;;;;;;;;5041798;28;20194;-66
2022/09/05 06:13:06;;;;;;;10.80;7.73;;;;;;;;;;5043304;28;20222;-68
2022/09/05 06:16:19;;;;;;;14.80;7.90;;;;;;;;;;5041643;28;20261;-68
2022/09/05 06:18:47;;;;;;;9.57;7.30;;;;;;;;;;4988307;28;20379;-70
2022/09/05 06:21:30;;;;;;;9.97;7.80;;;;;;;;;;4988727;28;20205;-69
2022/09/05 06:24:34;;;;;;;9.90;6.63;;;;;;;;;;4987316;28;20204;-69
2022/09/05 06:27:21;;;;;;;10.60;6.23;;;;;;;;;;4983684;28;20213;-69
2022/09/05 06:29:57;;;;;;;9.93;5.90;;;;;;;;;;4982933;28;20223;-68
2022/09/05 06:32:47;;;;;;;8.97;5.60;;;;;;;;;;4990783;28;20199;-68
2022/09/05 06:35:37;;;;;;;6.13;4.87;;;;;;;;;;4972826;28;20193;-67
2022/09/05 06:38:14;;;;;;;6.83;5.13;;;;;;;;;;5037201;28;20227;-69
2022/09/05 06:40:50;;;;;;;6.67;4.90;;;;;;;;;;5031300;28;20203;-67
2022/09/05 06:43:40;;;;;;;6.10;4.60;;;;;;;;;;5043269;28;20225;-69
2022/09/05 06:46:09;;;;;;;6.77;4.33;;;;;;;;;;5038065;28;20241;-70
2022/09/05 06:48:37;;;;;;;8.07;4.77;;;;;;;;;;5042310;28;20252;-68
2022/09/05 06:51:31;;;;;;;11.47;4.37;;;;;;;;;;5037332;28;20489;-69
2022/09/05 06:54:09;;;;;;;19.67;4.67;;;;;;;;;;5034002;28;20206;-69
2022/09/05 06:56:41;;;;;;;7.17;4.50;;;;;;;;;;5040605;28;20225;-68
2022/09/05 06:59:33;;;;;;;8.67;4.80;;;;;;;;;;5039090;28;20190;-68
2022/09/05 07:02:21;;;;;;;9.10;4.77;;;;;;;;;;5038497;28;20628;-67
2022/09/05 07:05:30;;;;;;;10.87;5.83;;;;;;;;;;5031897;28;20194;-68
2022/09/05 07:08:35;;;;;;;8.17;5.67;;;;;;;;;;5049221;28;20220;-67
2022/09/05 07:11:12;;;;;;;10.93;6.53;;;;;;;;;;5059336;28;20353;-69
2022/09/05 07:14:11;;;;;;;8.93;6.50;;;;;;;;;;5044027;28;20194;-68
2022/09/05 07:16:51;;;;;;;10.27;6.83;;;;;;;;;;5019102;28;20316;-67
2022/09/05 07:19:31;;;;;;;11.70;8.03;;;;;;;;;;5051547;28;20597;-69
2022/09/05 07:22:19;;;;;;;12.40;8.20;;;;;;;;;;5042661;28;20194;-68
2022/09/05 07:25:18;;;;;;;14.47;8.87;;;;;;;;;;5046289;28;20201;-68
2022/09/05 07:28:00;;;;;;;17.77;9.50;;;;;;;;;;5041727;28;20239;-69
2022/09/05 07:30:57;;;;;;;13.10;9.07;;;;;;;;;;5065153;28;20226;-67
2022/09/05 07:33:33;;;;;;;16.87;9.33;;;;;;;;;;5025987;28;20199;-67
2022/09/05 07:36:19;;;;;;;14.17;9.10;;;;;;;;;;5046976;28;20844;-69
2022/09/05 07:38:58;;;;;;;13.30;9.30;;;;;;;;;;5053815;28;20210;-68
2022/09/05 07:42:10;;;;;;;21.80;9.07;;;;;;;;;;5054913;28;20194;-67
2022/09/05 07:44:58;;;;;;;12.37;8.50;;;;;;;;;;5047666;28;20233;-68
2022/09/05 07:47:32;;;;;;;15.73;8.77;;;;;;;;;;5055399;28;20212;-68
2022/09/05 07:50:07;;;;;;;16.63;8.43;;;;;;;;;;5058864;28;20217;-70
2022/09/05 07:53:18;;;;;;;13.40;7.00;;;;;;;;;;5052652;28;20209;-67
2022/09/05 07:56:40;;;;;;;8.90;6.23;;;;;;;;;;5073550;28;20220;-68
2022/09/05 07:59:39;;;;;;;10.87;6.33;;;;;;;;;;5044453;28;20328;-67
2022/09/05 08:02:12;;;;;;;6.70;5.63;;;;;;;;;;5034453;28;20206;-73
2022/09/05 08:04:42;;;;;;;7.13;5.53;;;;;;;;;;5038194;28;20202;-66
2022/09/05 08:07:15;;;;;;;7.47;5.57;;;;;;;;;;5064286;28;20212;-68
2022/09/05 08:10:16;;;;;;;7.83;4.50;;;;;;;;;;5063832;28;20432;-68
2022/09/05 08:13:05;;;;;;;7.40;4.60;;;;;;;;;;5062912;28;20684;-69
2022/09/05 08:15:55;;;;;;;7.83;4.60;;;;;;;;;;5076455;28;20197;-66
2022/09/05 08:18:49;;;;;;;5.13;3.97;;;;;;;;;;5067005;28;20730;-65
2022/09/05 08:21:41;;;;;;;6.77;3.90;;;;;;;;;;5056638;28;20277;-67
2022/09/05 08:24:35;;;;;;;5.67;3.70;;;;;;;;;;5070747;28;20214;-67
2022/09/05 08:27:40;;;;;;;4.47;3.13;;;;;;;;;;5077859;28;20292;-68
2022/09/05 08:30:18;;;;;;;5.63;3.20;;;;;;;;;;5047164;28;20209;-68
2022/09/05 08:33:23;;;;;;;5.93;3.27;;;;;;;;;;5063404;28;20264;-68
2022/09/05 08:36:01;;;;;;;3.17;2.80;;;;;;;;;;5036104;28;20634;-68
2022/09/05 08:38:39;;;;;;;5.67;2.90;;;;;;;;;;5065295;28;20293;-70
2022/09/05 08:41:22;;;;;;;5.03;2.90;;;;;;;;;;5065223;28;20212;-67
2022/09/05 08:44:32;;;;;;;3.30;2.43;;;;;;;;;;5066215;28;20294;-69
2022/09/05 08:47:42;;;;;;;5.03;2.67;;;;;;;;;;5062231;28;20693;-66
2022/09/05 08:50:32;;;;;;;3.10;2.60;;;;;;;;;;5041075;28;20241;-68
2022/09/05 08:53:33;;;;;;;3.63;2.13;;;;;;;;;;5042409;28;20194;-67
2022/09/05 08:56:29;;;;;;;7.00;2.63;;;;;;;;;;5045606;28;20197;-69
2022/09/05 08:59:20;;;;;;;5.90;2.37;;;;;;;;;;5041745;28;20195;-67
2022/09/05 09:02:17;;;;;;;2.83;2.20;;;;;;;;;;5037192;28;20789;-68
2022/09/05 09:05:15;;;;;;;4.03;2.13;;;;;;;;;;5045719;28;20754;-68
2022/09/05 09:08:02;;;;;;;3.40;2.30;;;;;;;;;;5042955;28;20296;-67
2022/09/05 09:10:52;;;;;;;4.20;2.10;;;;;;;;;;5047112;28;20269;-70
2022/09/05 09:13:32;;;;;;;4.60;2.47;;;;;;;;;;5044758;28;20195;-68
2022/09/05 09:16:19;;;;;;;3.57;2.13;;;;;;;;;;5036727;28;20228;-72
2022/09/05 09:18:52;;;;;;;4.83;2.47;;;;;;;;;;5048563;28;20201;-70
2022/09/05 09:21:35;;;;;;;3.47;1.97;;;;;;;;;;5054363;28;20197;-69
2022/09/05 09:24:11;;;;;;;5.13;2.40;;;;;;;;;;5049314;28;20699;-69
2022/09/05 09:27:03;;;;;;;4.47;2.50;;;;;;;;;;5067750;28;20296;-70
2022/09/05 09:29:33;;;;;;;3.77;2.17;;;;;;;;;;5047301;28;20533;-67
2022/09/05 09:32:07;;;;;;;4.23;2.80;;;;;;;;;;5055552;28;20651;-70
2022/09/05 09:34:56;;;;;;;4.37;2.60;;;;;;;;;;5049486;28;20206;-71
2022/09/05 09:37:46;;;;;;;3.73;2.10;;;;;;;;;;5052948;28;20282;-68
2022/09/05 09:40:36;;;;;;;4.47;2.97;;;;;;;;;;5050331;28;20246;-69
2022/09/05 09:43:26;;;;;;;4.83;2.83;;;;;;;;;;5040675;28;20202;-68
2022/09/05 09:46:14;;;;;;;4.83;2.73;;;;;;;;;;5034752;28;20235;-69
2022/09/05 09:49:06;;;;;;;5.67;2.93;;;;;;;;;;5039724;28;20444;-65
2022/09/05 09:52:08;;;;;;;5.27;3.10;;;;;;;;;;5048296;28;20218;-66
2022/09/05 09:55:06;;;;;;;4.20;3.27;;;;;;;;;;5044173;28;20198;-67
2022/09/05 09:58:13;;;;;;;3.53;2.63;;;;;;;;;;5034479;28;20301;-66
2022/09/05 10:00:56;;;;;;;5.40;3.43;;;;;;;;;;5051853;28;20221;-66
2022/09/05 10:03:41;;;;;;;8.80;3.30;;;;;;;;;;5038356;28;20218;-68
2022/09/05 10:06:46;;;;;;;4.73;3.07;;;;;;;;;;5068498;28;20194;-69
2022/09/05 10:09:59;;;;;;;4.50;2.87;;;;;;;;;;5037125;28;20222;-68
2022/09/05 10:13:07;;;;;;;4.83;3.10;;;;;;;;;;5043703;28;20214;-69
2022/09/05 10:15:52;;;;;;;3.67;2.20;;;;;;;;;;5037363;28;20398;-70
2022/09/05 10:18:54;;;;;;;2.67;2.37;;;;;;;;;;5049108;28;20229;-64
2022/09/05 10:21:34;;;;;;;2.87;2.30;;;;;;;;;;5044581;28;20195;-63
2022/09/05 10:24:25;;;;;;;6.37;2.30;;;;;;;;;;5042670;28;20191;-63
2022/09/05 10:26:55;;;;;;;2.40;2.20;;;;;;;;;;5042867;28;20279;-63
2022/09/05 10:29:29;;;;;;;2.93;2.10;;;;;;;;;;5038717;28;20195;-63
2022/09/05 10:32:09;;;;;;;2.47;1.57;;;;;;;;;;5039962;28;20527;-64
2022/09/05 10:35:23;;;;;;;2.93;1.83;;;;;;;;;;5041915;28;20246;-64
2022/09/05 10:38:04;;;;;;;2.70;1.50;;;;;;;;;;5033355;28;20708;-64
2022/09/05 10:40:50;;;;;;;3.50;1.67;;;;;;;;;;5037564;28;20292;-63
2022/09/05 10:43:46;;;;;;;1.40;1.30;;;;;;;;;;5070297;28;20233;-64
2022/09/05 10:46:21;;;;;;;1.80;1.70;;;;;;;;;;5030223;28;20234;-64
2022/09/05 10:49:14;;;;;;;3.93;1.57;;;;;;;;;;5045906;28;20230;-64
2022/09/05 10:51:48;;;;;;;3.23;1.60;;;;;;;;;;5038999;27;20203;-69
2022/09/05 10:54:38;;;;;;;39.03;8.10;;;;;;;;;;5041739;28;20198;-62
2022/09/05 10:57:35;;;;;;;54.10;9.70;;;;;;;;;;5044919;28;20206;-66
2022/09/05 11:00:09;;;;;;;33.07;7.60;;;;;;;;;;5034339;28;20198;-67
2022/09/05 11:03:03;;;;;;;25.10;7.10;;;;;;;;;;5051433;28;20201;-67
2022/09/05 11:05:56;;;;;;;18.80;6.33;;;;;;;;;;5030093;28;20233;-67
2022/09/05 11:08:54;;;;;;;30.03;6.53;;;;;;;;;;5050462;28;20213;-67
2022/09/05 11:11:26;;;;;;;18.57;6.00;;;;;;;;;;5054201;28;20208;-68
2022/09/05 11:14:06;;;;;;;14.30;5.13;;;;;;;;;;5043760;28;20226;-68
2022/09/05 11:16:56;;;;;;;13.10;4.90;;;;;;;;;;5048429;28;20210;-67
2022/09/05 11:19:34;;;;;;;9.90;4.60;;;;;;;;;;5046372;28;20189;-67
2022/09/05 11:22:08;;;;;;;10.67;3.87;;;;;;;;;;5035535;28;20260;-68
2022/09/05 11:25:02;;;;;;;9.73;4.43;;;;;;;;;;5048837;28;20206;-66
2022/09/05 11:27:48;;;;;;;8.60;3.90;;;;;;;;;;5038125;28;20221;-68
2022/09/05 11:30:22;;;;;;;7.07;3.33;;;;;;;;;;5046614;28;20239;-68
2022/09/05 11:33:24;;;;;;;8.23;4.00;;;;;;;;;;5042919;28;20262;-63
2022/09/05 11:36:27;;;;;;;11.93;4.77;;;;;;;;;;5037238;28;20519;-62
2022/09/05 11:39:26;;;;;;;11.47;4.23;;;;;;;;;;5042445;28;20246;-62
2022/09/05 11:42:36;;;;;;;9.23;4.67;;;;;;;;;;5045878;28;20202;-62
2022/09/05 11:45:12;;;;;;;12.73;4.90;;;;;;;;;;5043846;28;20221;-62
2022/09/05 11:48:11;;;;;;;11.23;4.17;;;;;;;;;;5046643;28;20222;-63
2022/09/05 11:51:00;;;;;;;8.77;3.80;;;;;;;;;;5040101;28;20595;-63
2022/09/05 11:53:56;;;;;;;7.20;3.23;;;;;;;;;;5043659;28;20270;-63
2022/09/05 11:56:42;;;;;;;9.43;2.90;;;;;;;;;;5042072;28;20535;-62
2022/09/05 11:59:23;;;;;;;4.20;2.50;;;;;;;;;;5037224;28;20206;-63
2022/09/05 12:02:20;;;;;;;6.13;3.17;;;;;;;;;;5035033;28;20209;-63
2022/09/05 12:05:13;;;;;;;5.33;2.80;;;;;;;;;;5043606;28;20194;-63
2022/09/05 12:08:11;;;;;;;5.37;2.77;;;;;;;;;;5050315;28;20282;-62
2022/09/05 12:11:01;;;;;;;5.53;2.67;;;;;;;;;;5045097;28;20213;-62
2022/09/05 12:13:36;;;;;;;3.37;2.20;;;;;;;;;;5037145;28;20286;-62
2022/09/05 12:16:28;;;;;;;3.83;2.20;;;;;;;;;;5043422;28;20198;-63
2022/09/05 12:19:34;;;;;;;3.33;2.07;;;;;;;;;;5045275;28;20214;-62
2022/09/05 12:22:20;;;;;;;3.77;2.03;;;;;;;;;;4986284;28;20200;-63
2022/09/05 12:25:07;;;;;;;2.97;2.10;;;;;;;;;;5043754;28;20578;-63
2022/09/05 12:28:06;;;;;;;2.97;1.53;;;;;;;;;;5045033;28;20922;-62
2022/09/05 12:31:17;;;;;;;4.70;2.03;;;;;;;;;;5042818;28;20198;-61
2022/09/05 12:34:17;;;;;;;2.97;1.77;;;;;;;;;;5043914;28;20667;-62
2022/09/05 12:37:11;;;;;;;3.83;1.37;;;;;;;;;;5057168;28;20191;-62
2022/09/05 12:40:16;;;;;;;3.47;1.77;;;;;;;;;;5045186;28;20194;-62
2022/09/05 12:43:12;;;;;;;3.53;1.63;;;;;;;;;;5031725;28;20202;-62
2022/09/05 12:46:23;;;;;;;2.27;1.20;;;;;;;;;;5030131;28;20230;-63
2022/09/05 12:49:01;;;;;;;2.87;1.47;;;;;;;;;;5028158;28;20636;-64
2022/09/05 12:51:45;;;;;;;2.07;1.40;;;;;;;;;;5024570;28;20746;-65
2022/09/05 12:54:32;;;;;;;2.13;1.30;;;;;;;;;;5053584;28;20198;-66
2022/09/05 12:57:31;;;;;;;6.23;1.67;;;;;;;;;;5047558;28;20202;-65
2022/09/05 13:00:26;;;;;;;6.10;1.73;;;;;;;;;;5029154;28;20202;-66
2022/09/05 13:03:27;;;;;;;6.23;1.80;;;;;;;;;;5048680;28;20280;-65
2022/09/05 13:06:16;;;;;;;2.23;1.40;;;;;;;;;;5044145;28;20203;-65
2022/09/05 13:09:09;;;;;;;4.10;1.50;;;;;;;;;;5043509;28;20194;-66
2022/09/05 13:12:18;;;;;;;4.77;1.70;;;;;;;;;;5043284;28;20194;-65
2022/09/05 13:15:22;;;;;;;2.70;1.43;;;;;;;;;;5036065;28;20237;-66
2022/09/05 13:18:09;;;;;;;3.53;1.37;;;;;;;;;;5043237;28;20213;-65
2022/09/05 13:20:52;;;;;;;1.97;1.33;;;;;;;;;;5039469;28;20194;-65
2022/09/05 13:23:46;;;;;;;2.70;1.17;;;;;;;;;;5056930;28;20182;-68
2022/09/05 13:26:22;;;;;;;2.03;1.20;;;;;;;;;;5036348;28;20245;-66
2022/09/05 13:29:05;;;;;;;3.10;1.40;;;;;;;;;;5030784;28;20198;-65
2022/09/05 13:31:41;;;;;;;1.20;0.97;;;;;;;;;;5038650;28;20309;-65
2022/09/05 13:34:47;;;;;;;3.60;1.40;;;;;;;;;;5046307;28;20194;-66
2022/09/05 13:37:34;;;;;;;1.60;1.33;;;;;;;;;;5036041;28;20226;-64
2022/09/05 13:40:49;;;;;;;1.40;1.30;;;;;;;;;;5027296;28;20187;-64
2022/09/05 13:43:25;;;;;;;3.20;1.57;;;;;;;;;;5027362;28;20269;-65
2022/09/05 13:46:32;;;;;;;1.40;1.30;;;;;;;;;;5034695;28;20326;-65
2022/09/05 13:49:17;;;;;;;1.57;1.47;;;;;;;;;;5019138;28;20217;-65
2022/09/05 13:52:17;;;;;;;1.40;1.30;;;;;;;;;;5009343;28;20211;-65
2022/09/05 13:55:08;;;;;;;2.40;1.30;;;;;;;;;;5017683;28;20209;-65
2022/09/05 13:58:03;;;;;;;1.50;1.30;;;;;;;;;;5033340;28;20325;-64
2022/09/05 14:01:01;;;;;;;1.43;1.23;;;;;;;;;;5043989;28;20193;-65
2022/09/05 14:04:02;;;;;;;1.67;1.40;;;;;;;;;;5029923;28;20217;-65
2022/09/05 14:06:46;;;;;;;3.37;1.27;;;;;;;;;;5047504;28;20210;-66
2022/09/05 14:09:27;;;;;;;1.30;1.20;;;;;;;;;;5045763;28;20193;-66
2022/09/05 14:12:28;;;;;;;1.73;1.30;;;;;;;;;;5043632;28;20205;-65
2022/09/05 14:15:17;;;;;;;1.60;1.50;;;;;;;;;;5053028;28;20235;-65
2022/09/05 14:18:11;;;;;;;2.83;1.50;;;;;;;;;;5040962;28;20205;-66
2022/09/05 14:21:16;;;;;;;1.30;1.20;;;;;;;;;;5040107;28;20210;-66
2022/09/05 14:24:13;;;;;;;1.87;1.50;;;;;;;;;;5039690;28;20929;-65
2022/09/05 14:27:01;;;;;;;1.70;1.30;;;;;;;;;;5042088;28;20211;-65
2022/09/05 14:29:39;;;;;;;2.23;1.63;;;;;;;;;;5044006;28;20193;-65
2022/09/05 14:32:28;;;;;;;2.80;1.47;;;;;;;;;;5042421;28;20213;-65
2022/09/05 14:35:41;;;;;;;3.63;1.50;;;;;;;;;;5053057;28;20190;-65
2022/09/05 14:38:49;;;;;;;1.90;1.63;;;;;;;;;;5045192;28;20713;-64
2022/09/05 14:41:39;;;;;;;1.67;1.40;;;;;;;;;;5042805;28;20197;-64
2022/09/05 14:44:43;;;;;;;1.50;1.40;;;;;;;;;;5049354;28;20197;-64
2022/09/05 14:47:31;;;;;;;1.50;1.40;;;;;;;;;;5038694;28;20516;-64
2022/09/05 14:50:26;;;;;;;1.67;1.53;;;;;;;;;;5031871;28;20219;-64
2022/09/05 14:52:59;;;;;;;1.87;1.60;;;;;;;;;;5041599;28;20226;-64
2022/09/05 14:56:00;;;;;;;1.33;1.23;;;;;;;;;;5034105;28;20195;-64
2022/09/05 14:59:06;;;;;;;1.40;1.30;;;;;;;;;;5049586;28;20210;-64
2022/09/05 15:02:00;;;;;;;2.50;1.03;;;;;;;;;;5048024;28;20217;-65
2022/09/05 15:04:57;;;;;;;1.63;1.53;;;;;;;;;;5033905;28;20551;-64
2022/09/05 15:07:43;;;;;;;1.70;1.33;;;;;;;;;;5043156;28;20698;-64
2022/09/05 15:10:21;;;;;;;1.80;1.20;;;;;;;;;;5055544;28;20195;-65
2022/09/05 15:13:12;;;;;;;1.73;1.40;;;;;;;;;;5040714;28;20796;-64
2022/09/05 15:15:44;;;;;;;1.40;1.30;;;;;;;;;;5029816;28;20202;-64
2022/09/05 15:18:33;;;;;;;1.73;1.20;;;;;;;;;;5059219;28;20831;-64
2022/09/05 15:21:33;;;;;;;1.47;1.37;;;;;;;;;;5048653;28;20217;-64
2022/09/05 15:24:18;;;;;;;1.53;1.10;;;;;;;;;;5039180;28;20237;-64
2022/09/05 15:26:53;;;;;;;1.63;1.40;;;;;;;;;;5054110;28;20279;-64
2022/09/05 15:29:36;;;;;;;1.27;1.17;;;;;;;;;;5048241;28;20277;-64
2022/09/05 15:32:23;;;;;;;1.20;1.10;;;;;;;;;;5048435;28;20206;-63
2022/09/05 15:34:55;;;;;;;1.97;1.20;;;;;;;;;;5054753;28;20185;-64
2022/09/05 15:37:41;;;;;;;1.20;1.10;;;;;;;;;;5031197;28;20201;-64
2022/09/05 15:40:16;;;;;;;1.20;1.10;;;;;;;;;;5025599;28;20222;-64
2022/09/05 15:42:57;;;;;;;1.20;1.07;;;;;;;;;;5045490;28;20544;-64
2022/09/05 15:45:33;;;;;;;1.20;1.10;;;;;;;;;;5049802;28;20252;-64
2022/09/05 15:48:09;;;;;;;1.30;1.20;;;;;;;;;;5031486;28;20545;-64
2022/09/05 15:50:51;;;;;;;1.70;1.60;;;;;;;;;;5063328;28;20627;-64
2022/09/05 15:53:33;;;;;;;2.17;1.53;;;;;;;;;;5061841;28;20224;-64
2022/09/05 15:56:25;;;;;;;2.30;1.37;;;;;;;;;;5067410;28;20201;-64
2022/09/05 15:58:56;;;;;;;1.70;1.60;;;;;;;;;;5058584;28;20213;-64
2022/09/05 16:01:36;;;;;;;1.73;1.27;;;;;;;;;;5066724;28;20196;-64
2022/09/05 16:04:30;;;;;;;1.80;1.40;;;;;;;;;;5067107;28;20196;-64
2022/09/05 16:07:26;;;;;;;2.17;1.60;;;;;;;;;;5058398;28;20627;-64
2022/09/05 16:10:19;;;;;;;1.60;1.50;;;;;;;;;;5042716;28;20225;-64
2022/09/05 16:13:16;;;;;;;1.70;1.53;;;;;;;;;;5065422;28;20210;-64
2022/09/05 16:16:16;;;;;;;1.87;1.50;;;;;;;;;;5056178;28;20213;-64
2022/09/05 16:19:12;;;;;;;1.83;1.60;;;;;;;;;;5064686;28;20630;-64
2022/09/05 16:22:03;;;;;;;2.03;1.50;;;;;;;;;;5081562;28;20212;-64
2022/09/05 16:25:01;;;;;;;2.53;1.60;;;;;;;;;;5080894;28;20543;-64
2022/09/05 16:28:14;;;;;;;1.53;1.40;;;;;;;;;;5054593;28;20542;-64
2022/09/05 16:30:42;;;;;;;1.40;1.30;;;;;;;;;;5031627;28;20202;-64
2022/09/05 16:33:29;;;;;;;2.20;1.63;;;;;;;;;;5004139;28;20213;-64
2022/09/05 16:36:01;;;;;;;2.47;1.53;;;;;;;;;;5026136;28;20287;-64
2022/09/05 16:38:46;;;;;;;1.70;1.47;;;;;;;;;;5018758;28;20230;-64
2022/09/05 16:41:36;;;;;;;3.07;1.60;;;;;;;;;;5025284;28;20210;-64
2022/09/05 16:44:10;;;;;;;1.67;1.57;;;;;;;;;;5031614;28;20187;-64
2022/09/05 16:47:07;;;;;;;1.87;1.77;;;;;;;;;;5024497;28;20240;-64
2022/09/05 16:49:52;;;;;;;3.23;1.87;;;;;;;;;;4997430;28;20219;-63